Time;durP1;ratioP1;P1;durP2;ratioP2;P2;SDS_P1;SDS_P2;PMS_P1;PMS_P2;Temp;Humidity;BMP_temperature;BMP_pressure;BME280_temperature;BME280_humidity;BME280_pressure;Samples;Min_cycle;Max_cycle;Signal;HPM_P1;HPM_P2
2023/10/17 00:05:49;;;;;;;;;0.00;0.00;;;;;8.18;100.00;101161.81;4763637;29;45994;-89
2023/10/17 00:08:29;;;;;;;;;;;;;;;;;;;;;
2023/10/17 00:11:41;;;;;;;;;;;;;;;;;;;;;
2023/10/17 00:17:47;;;;;;;;;;;;;;;;;;;;;
2023/10/17 00:23:30;;;;;;;;;;;;;;;;;;;;;
2023/10/17 00:32:41;;;;;;;;;;;;;;;;;;;;;
2023/10/17 00:38:35;;;;;;;;;0.00;0.00;;;;;7.99;100.00;101123.16;4865322;28;45628;-89
2023/10/17 00:41:37;;;;;;;;;;;;;;;;;;;;;
2023/10/17 00:44:48;;;;;;;;;;;;;;;;;;;;;
2023/10/17 00:48:49;;;;;;;;;;;;;;;;;;;;;
2023/10/17 00:51:21;;;;;;;;;;;;;;;;;;;;;
2023/10/17 00:53:58;;;;;;;;;;;;;;;;;;;;;
2023/10/17 00:56:37;;;;;;;;;0.00;0.00;;;;;7.94;100.00;101091.25;4940568;28;75455;-89
2023/10/17 00:59:29;;;;;;;;;;;;;;;;;;;;;
2023/10/17 01:02:44;;;;;;;;;;;;;;;;;;;;;
2023/10/17 01:05:39;;;;;;;;;;;;;;;;;;;;;
2023/10/17 01:08:26;;;;;;;;;;;;;;;;;;;;;
2023/10/17 01:14:33;;;;;;;;;;;;;;;;;;;;;
2023/10/17 01:17:38;;;;;;;;;;;;;;;;;;;;;
2023/10/17 01:20:29;;;;;;;;;;;;;;;;;;;;;
2023/10/17 01:23:43;;;;;;;;;;;;;;;;;;;;;
2023/10/17 01:29:31;;;;;;;;;;;;;;;;;;;;;
2023/10/17 01:31:59;;;;;;;;;;;;;;;;;;;;;
2023/10/17 01:34:49;;;;;;;;;;;;;;;;;;;;;
2023/10/17 01:37:36;;;;;;;;;;;;;;;;;;;;;
2023/10/17 01:40:37;;;;;;;;;;;;;;;;;;;;;
2023/10/17 01:43:40;;;;;;;;;;;;;;;;;;;;;
2023/10/17 01:46:31;;;;;;;;;;;;;;;;;;;;;
2023/10/17 01:49:10;;;;;;;;;;;;;;;;;;;;;
2023/10/17 01:51:59;;;;;;;;;;;;;;;;;;;;;
2023/10/17 01:54:32;;;;;;;;;0.00;0.00;;;;;7.48;100.00;101105.56;5039094;28;46230;-89
2023/10/17 01:57:37;;;;;;;;;;;;;;;;;;;;;
2023/10/17 02:00:54;;;;;;;;;;;;;;;;;;;;;
2023/10/17 02:06:38;;;;;;;;;;;;;;;;;;;;;
2023/10/17 02:09:37;;;;;;;;;;;;;;;;;;;;;
2023/10/17 02:12:32;;;;;;;;;;;;;;;;;;;;;
2023/10/17 02:15:19;;;;;;;;;;;;;;;;;;;;;
2023/10/17 02:18:06;;;;;;;;;;;;;;;;;;;;;
2023/10/17 02:27:23;;;;;;;;;;;;;;;;;;;;;
2023/10/17 02:33:29;;;;;;;;;;;;;;;;;;;;;
2023/10/17 02:39:22;;;;;;;;;;;;;;;;;;;;;
2023/10/17 02:42:18;;;;;;;;;;;;;;;;;;;;;
2023/10/17 02:45:17;;;;;;;;;;;;;;;;;;;;;
2023/10/17 02:48:23;;;;;;;;;;;;;;;;;;;;;
2023/10/17 02:51:01;;;;;;;;;0.00;0.00;;;;;7.09;100.00;101091.28;4802908;29;45397;-90
2023/10/17 02:54:04;;;;;;;;;;;;;;;;;;;;;
2023/10/17 02:57:02;;;;;;;;;0.00;0.00;;;;;7.04;100.00;101093.03;4885161;29;71752;-90
2023/10/17 02:59:58;;;;;;;;;;;;;;;;;;;;;
2023/10/17 03:05:45;;;;;;;;;0.00;0.00;;;;;7.03;100.00;101086.16;4862077;29;46416;-89
2023/10/17 03:08:35;;;;;;;;;;;;;;;;;;;;;
2023/10/17 03:11:57;;;;;;;;;;;;;;;;;;;;;
2023/10/17 03:17:20;;;;;;;;;0.00;0.00;;;;;7.02;100.00;101087.91;4847213;29;45617;-89
2023/10/17 03:20:26;;;;;;;;;;;;;;;;;;;;;
2023/10/17 03:23:18;;;;;;;;;;;;;;;;;;;;;
2023/10/17 03:26:00;;;;;;;;;;;;;;;;;;;;;
2023/10/17 03:28:34;;;;;;;;;0.00;0.00;;;;;6.86;100.00;101074.22;4847957;29;75290;-89
2023/10/17 03:34:29;;;;;;;;;;;;;;;;;;;;;
2023/10/17 03:40:38;;;;;;;;;0.00;0.00;;;;;6.82;100.00;101069.09;4925086;28;46224;-90
2023/10/17 03:43:38;;;;;;;;;;;;;;;;;;;;;
2023/10/17 03:46:36;;;;;;;;;;;;;;;;;;;;;
2023/10/17 03:49:15;;;;;;;;;;;;;;;;;;;;;
2023/10/17 03:52:19;;;;;;;;;;;;;;;;;;;;;
2023/10/17 03:58:15;;;;;;;;;;;;;;;;;;;;;
2023/10/17 04:01:06;;;;;;;;;0.00;0.00;;;;;6.72;100.00;101061.41;4956009;28;68428;-89
2023/10/17 04:04:20;;;;;;;;;;;;;;;;;;;;;
2023/10/17 04:07:06;;;;;;;;;;;;;;;;;;;;;
2023/10/17 04:12:50;;;;;;;;;;;;;;;;;;;;;
2023/10/17 04:15:41;;;;;;;;;0.00;0.00;;;;;6.71;100.00;101066.56;4942546;28;75282;-89
2023/10/17 04:18:18;;;;;;;;;;;;;;;;;;;;;
2023/10/17 04:21:08;;;;;;;;;;;;;;;;;;;;;
2023/10/17 04:24:05;;;;;;;;;;;;;;;;;;;;;
2023/10/17 04:29:32;;;;;;;;;0.00;0.00;;;;;6.68;100.00;101090.72;4924012;28;45477;-90
2023/10/17 04:32:13;;;;;;;;;0.00;0.00;;;;;6.66;100.00;101089.03;4919487;28;45309;-89
2023/10/17 04:47:02;;;;;;;;;;;;;;;;;;;;;
2023/10/17 04:54:02;;;;;;;;;;;;;;;;;;;;;
2023/10/17 04:57:03;;;;;;;;;;;;;;;;;;;;;
2023/10/17 04:59:38;;;;;;;;;;;;;;;;;;;;;
2023/10/17 05:06:10;;;;;;;;;;;;;;;;;;;;;
2023/10/17 06:17:20;;;;;;;;;0.00;0.00;;;;;6.31;100.00;101066.84;4956938;28;45381;-93
2023/10/17 06:19:49;;;;;;;;;0.00;0.00;;;;;6.32;100.00;101066.84;4945162;28;45312;-91
2023/10/17 06:28:34;;;;;;;;;0.00;0.00;;;;;6.36;100.00;101075.44;4943895;28;45467;-89
2023/10/17 06:34:01;;;;;;;;;0.00;0.00;;;;;6.35;100.00;101063.34;4958211;28;45386;-91
2023/10/17 06:36:39;;;;;;;;;;;;;;;;;;;;;
2023/10/17 06:39:27;;;;;;;;;;;;;;;;;;;;;
2023/10/17 06:42:39;;;;;;;;;;;;;;;;;;;;;
2023/10/17 06:47:48;;;;;;;;;0.00;0.00;;;;;6.48;100.00;101087.41;4943182;28;45484;-91
2023/10/17 06:51:21;;;;;;;;;0.00;0.00;;;;;6.51;100.00;101085.66;4955072;28;45417;-91
2023/10/17 06:53:06;;;;;;;;;0.00;0.00;;;;;6.48;100.00;101069.31;4949741;28;45221;-92
2023/10/17 06:55:42;;;;;;;;;0.00;0.00;;;;;6.54;100.00;101067.56;5010863;28;46353;-94
2023/10/17 06:58:11;;;;;;;;;0.00;0.00;;;;;6.55;100.00;101071.84;5034622;28;45538;-94
2023/10/17 07:00:49;;;;;;;;;0.00;0.00;;;;;6.57;100.00;101077.88;5037293;28;45381;-93
2023/10/17 07:03:15;;;;;;;;;0.00;0.00;;;;;6.67;100.00;101083.00;5021080;28;45274;-95
2023/10/17 07:05:49;;;;;;;;;0.00;0.00;;;;;6.67;100.00;101076.09;5031070;28;47162;-95
2023/10/17 07:08:16;;;;;;;;;0.00;0.00;;;;;6.66;100.00;101071.78;5049044;28;45409;-94
2023/10/17 07:10:58;;;;;;;;;0.00;0.00;;;;;6.65;100.00;101062.31;5046912;28;45716;-95
2023/10/17 07:13:55;;;;;;;;;0.00;0.00;;;;;6.74;100.00;101076.88;5037571;28;45948;-95
2023/10/17 07:16:34;;;;;;;;;0.00;0.00;;;;;6.69;100.00;101061.41;5043529;28;47238;-93
2023/10/17 07:21:57;;;;;;;;;0.00;0.00;;;;;6.72;100.00;101071.75;5033640;28;45370;-87
2023/10/17 07:24:29;;;;;;;;;0.00;0.00;;;;;6.69;100.00;101064.00;5073232;28;45519;-94
2023/10/17 07:26:54;;;;;;;;;0.00;0.00;;;;;6.70;100.00;101068.28;5037808;28;48138;-96
2023/10/17 07:29:23;;;;;;;;;0.00;0.00;;;;;6.72;100.00;101060.53;5023517;28;46796;-95
2023/10/17 07:31:54;;;;;;;;;0.00;0.00;;;;;6.82;100.00;101063.91;5041659;28;45323;-96
2023/10/17 07:34:33;;;;;;;;;0.00;0.00;;;;;6.82;100.00;101062.19;5060311;28;45716;-96
2023/10/17 07:40:07;;;;;;;;;3.00;3.00;;;;;6.88;100.00;101054.34;5044163;28;45372;-94
2023/10/17 07:42:34;;;;;;;;;0.00;0.00;;;;;6.97;100.00;101066.38;5046224;28;45509;-95
2023/10/17 07:45:13;;;;;;;;;0.00;0.00;;;;;6.97;100.00;101067.22;5041575;28;45251;-94
2023/10/17 07:47:41;;;;;;;;;0.00;0.00;;;;;7.03;100.00;101078.38;5042129;28;47513;-95
2023/10/17 07:50:13;;;;;;;;;0.00;0.00;;;;;6.99;100.00;101069.78;5059188;28;45302;-95
2023/10/17 07:52:50;;;;;;;;;0.00;0.00;;;;;7.00;100.00;101068.06;5059598;28;45463;-95
2023/10/17 07:55:34;;;;;;;;;0.00;0.00;;;;;7.06;100.00;101066.28;5062565;28;45294;-90
2023/10/17 08:01:30;;;;;;;;;0.00;0.00;;;;;7.11;100.00;101055.88;5348328;22;45257;-92
2023/10/17 08:04:12;;;;;;;;;0.00;0.00;;;;;7.18;100.00;101060.13;5041171;28;45337;-91
2023/10/17 08:06:40;;;;;;;;;0.00;0.00;;;;;7.21;100.00;101048.88;5056964;28;45566;-92
2023/10/17 08:09:18;;;;;;;;;0.00;0.00;;;;;7.26;100.00;101055.75;5057070;28;46209;-93
2023/10/17 08:11:56;;;;;;;;;;;;;;;;;;;;;
2023/10/17 08:14:40;;;;;;;;;0.00;0.00;;;;;7.37;100.00;101058.19;5055560;28;69929;-94
2023/10/17 08:17:09;;;;;;;;;0.00;0.00;;;;;7.42;100.00;101053.84;5049503;28;45352;-94
2023/10/17 08:22:34;;;;;;;;;;;;;;;;;;;;;
2023/10/17 08:25:05;;;;;;;;;0.00;0.00;;;;;7.69;100.00;101055.25;5057374;28;69004;-92
2023/10/17 08:30:23;;;;;;;;;0.00;0.00;;;;;7.84;100.00;101058.56;5056534;28;46168;-94
2023/10/17 08:33:09;;;;;;;;;1.00;1.00;;;;;7.88;100.00;101057.63;5057237;28;45438;-94
2023/10/17 08:35:51;;;;;;;;;0.00;0.00;;;;;8.01;100.00;101058.34;5057754;28;45545;-94
2023/10/17 08:38:26;;;;;;;;;0.00;0.00;;;;;8.06;100.00;101044.44;5056166;28;45627;-93
2023/10/17 08:41:05;;;;;;;;;0.00;0.00;;;;;8.14;100.00;101047.75;5056888;28;46279;-93
2023/10/17 08:43:35;;;;;;;;;0.00;0.00;;;;;8.29;100.00;101056.22;5056422;28;45332;-93
2023/10/17 08:46:06;;;;;;;;;0.00;0.00;;;;;8.40;100.00;101050.88;5038638;28;45588;-94
2023/10/17 08:48:32;;;;;;;;;0.00;0.00;;;;;8.44;100.00;101039.59;5052420;28;45333;-91
2023/10/17 08:51:06;;;;;;;;;0.00;0.00;;;;;8.55;100.00;101045.47;5056433;28;45373;-94
2023/10/17 08:53:32;;;;;;;;;0.00;0.00;;;;;8.60;100.00;101032.41;5056192;28;45524;-93
2023/10/17 08:56:04;;;;;;;;;0.00;0.00;;;;;8.71;100.00;101035.69;5055996;28;45313;-94
2023/10/17 08:58:37;;;;;;;;;0.00;0.00;;;;;8.78;100.00;101037.31;5039523;28;45583;-93
2023/10/17 09:01:10;;;;;;;;;0.00;0.00;;;;;8.83;100.00;101038.09;5055500;28;45569;-94
2023/10/17 09:03:45;;;;;;;;;0.00;0.00;;;;;8.98;100.00;101046.50;5055902;28;45452;-93
2023/10/17 09:11:34;;;;;;;;;0.00;0.00;;;;;9.23;100.00;101033.91;5052507;28;45418;-94
2023/10/17 09:14:24;;;;;;;;;0.00;0.00;;;;;9.36;100.00;101042.34;5056797;28;45410;-94
2023/10/17 09:17:03;;;;;;;;;0.00;0.00;;;;;9.40;100.00;101026.69;5056836;28;45262;-94
2023/10/17 09:19:38;;;;;;;;;0.00;0.00;;;;;9.48;100.00;101021.31;5057140;28;45429;-94
2023/10/17 09:22:05;;;;;;;;;0.00;0.00;;;;;9.54;100.00;101012.56;5055544;28;46562;-94
2023/10/17 09:24:44;;;;;;;;;0.00;0.00;;;;;9.64;100.00;101025.34;5055585;28;45347;-93
2023/10/17 09:27:15;;;;;;;;;0.00;0.00;;;;;9.68;100.00;101032.19;5054798;28;45658;-93
2023/10/17 09:29:44;;;;;;;;;0.00;0.00;;;;;9.81;100.00;101042.34;5056517;28;45401;-94
2023/10/17 09:32:12;;;;;;;;;0.00;0.00;;;;;9.86;100.00;101033.53;5057515;28;45372;-94
2023/10/17 09:34:44;;;;;;;;;0.00;0.00;;;;;9.90;100.00;101023.94;5055866;28;45541;-95
2023/10/17 09:37:12;;;;;;;;;0.00;0.00;;;;;9.99;100.00;101025.47;5055412;28;45390;-93
2023/10/17 09:39:46;;;;;;;;;0.00;0.00;;;;;10.05;100.00;101021.00;5056356;28;45331;-94
2023/10/17 09:42:13;;;;;;;;;0.00;0.00;;;;;10.13;100.00;101020.81;5057169;28;46583;-95
2023/10/17 09:44:41;;;;;;;;;0.00;0.00;;;;;10.23;100.00;101022.34;5057140;28;45348;-95
2023/10/17 09:47:10;;;;;;;;;0.00;0.00;;;;;10.34;100.00;101027.31;5062853;28;45444;-95
2023/10/17 09:49:43;;;;;;;;;0.00;0.00;;;;;10.40;100.00;101019.38;5069682;28;45301;-95
2023/10/17 09:52:11;;;;;;;;;3.00;3.00;;;;;10.45;100.00;101006.22;5087248;27;45190;-95
2023/10/17 09:54:42;;;;;;;;;0.00;0.00;;;;;10.59;100.00;101024.13;5084378;28;44820;-94
2023/10/17 09:57:14;;;;;;;;;0.00;0.00;;;;;10.62;100.00;101017.09;5067437;28;45493;-94
2023/10/17 09:59:50;;;;;;;;;0.00;0.00;;;;;10.67;100.00;101006.56;5048336;28;45676;-90
2023/10/17 10:02:20;;;;;;;;;0.00;0.00;;;;;10.76;100.00;101008.94;5045468;28;47185;-90
2023/10/17 10:04:46;;;;;;;;;0.00;0.00;;;;;10.83;100.00;101002.69;5057088;28;45570;-90
2023/10/17 10:07:48;;;;;;;;;0.00;0.00;;;;;10.96;100.00;101012.78;5058961;28;45446;-89
2023/10/17 10:10:43;;;;;;;;;1.00;1.00;;;;;11.03;100.00;101015.19;5001964;28;45434;-90
2023/10/17 10:13:13;;;;;;;;;0.00;0.00;;;;;11.14;100.00;101007.06;5026808;28;46297;-92
2023/10/17 10:16:01;;;;;;;;;0.00;0.00;;;;;11.34;100.00;101016.09;5018930;28;45585;-93
2023/10/17 10:18:43;;;;;;;;;0.00;0.00;;;;;11.52;100.00;101014.75;5037554;28;45476;-92
2023/10/17 10:21:23;;;;;;;;;;;;;;;;;;;;;
2023/10/17 10:23:52;;;;;;;;;0.00;0.00;;;;;11.71;100.00;101005.47;5024412;28;75858;-95
2023/10/17 10:26:19;;;;;;;;;0.00;0.00;;;;;11.85;100.00;100996.38;5018020;28;45761;-92
2023/10/17 10:28:48;;;;;;;;;0.00;0.00;;;;;12.01;100.00;100997.66;5011667;28;45489;-92
2023/10/17 10:31:39;;;;;;;;;;;;;;;;;;;;;
2023/10/17 10:40:08;;;;;;;;;0.00;0.00;;;;;12.98;100.00;100990.16;5044148;28;45428;-87
2023/10/17 10:42:52;;;;;;;;;0.00;0.00;;;;;13.15;100.00;100983.47;5060592;27;45519;-93
2023/10/17 10:45:25;;;;;;;;;0.00;0.00;;;;;13.41;100.00;100993.03;5058247;28;47364;-91
2023/10/17 10:47:57;;;;;;;;;0.00;0.00;;;;;13.52;100.00;100976.91;5060154;28;45375;-95
2023/10/17 10:50:27;;;;;;;;;0.00;0.00;;;;;13.68;100.00;100972.81;5040561;28;47133;-96
2023/10/17 10:53:11;;;;;;;;;;;;;;;;;;;;;
2023/10/17 10:59:59;;;;;;;;;;;;;;;;;;;;;
2023/10/17 11:02:56;;;;;;;;;;;;;;;;;;;;;
2023/10/17 11:16:32;;;;;;;;;0.50;0.50;;;;;23.61;99.35;100957.75;4877910;29;45403;-93
2023/10/17 15:31:57;;;;;;;;;0.00;0.00;;;;;18.50;73.01;100672.97;6002604;23;46356;-90
2023/10/17 15:35:15;;;;;;;;;0.00;0.00;;;;;18.40;73.21;100669.19;5888876;24;45371;-91
2023/10/17 15:38:13;;;;;;;;;0.00;0.00;;;;;18.29;74.65;100671.66;5889576;24;45453;-91
2023/10/17 15:41:20;;;;;;;;;;;;;;;;;;;;;
2023/10/17 15:44:24;;;;;;;;;;;;;;;;;;;;;
2023/10/17 15:47:53;;;;;;;;;1.00;0.00;;;;;17.97;78.15;100656.06;5808791;24;72816;-91
2023/10/17 15:51:00;;;;;;;;;0.00;0.00;;;;;17.76;78.00;100642.41;5810848;24;45428;-89
2023/10/17 15:53:37;;;;;;;;;0.00;0.00;;;;;17.65;80.41;100653.56;5806711;24;45320;-89
2023/10/17 15:56:51;;;;;;;;;0.00;0.00;;;;;17.51;81.51;100643.00;5790405;24;48078;-91
2023/10/17 16:03:13;;;;;;;;;0.00;0.00;;;;;17.30;86.26;100645.13;5731772;24;45323;-89
2023/10/17 16:13:13;;;;;;;;;;;;;;;;;;;;;
2023/10/17 16:15:39;;;;;;;;;0.00;0.00;;;;;16.96;89.59;100649.72;6113343;23;70524;-90
2023/10/17 16:18:06;;;;;;;;;0.00;0.00;;;;;16.91;91.96;100655.22;6095092;23;45483;-90
2023/10/17 16:20:44;;;;;;;;;;;;;;;;;;;;;
2023/10/17 16:23:20;;;;;;;;;;;;;;;;;;;;;
2023/10/17 16:25:49;;;;;;;;;0.00;0.00;;;;;16.69;92.38;100647.66;6185846;22;67663;-90
2023/10/17 16:28:23;;;;;;;;;0.00;0.00;;;;;16.59;94.94;100643.88;6160446;22;45342;-90
2023/10/17 16:30:48;;;;;;;;;7.50;7.50;;;;;16.57;95.61;100651.81;6160840;22;47066;-90
2023/10/17 16:33:23;;;;;;;;;0.00;0.00;;;;;16.50;95.09;100654.88;6210356;22;45529;-90
2023/10/17 16:36:01;;;;;;;;;0.00;0.00;;;;;16.39;95.00;100656.31;6283840;22;45398;-91
2023/10/17 16:38:30;;;;;;;;;0.00;0.00;;;;;16.33;95.61;100659.28;6283213;22;45279;-92
2023/10/17 16:41:01;;;;;;;;;0.00;0.00;;;;;16.24;98.26;100657.13;6310055;22;45592;-90
2023/10/17 16:43:31;;;;;;;;;0.00;0.00;;;;;16.18;97.88;100658.31;6338039;22;45250;-90
2023/10/17 16:45:59;;;;;;;;;0.00;0.00;;;;;16.11;98.51;100661.34;6337093;22;45333;-90
2023/10/17 16:48:26;;;;;;;;;1.00;1.00;;;;;16.04;100.00;100658.19;6308751;22;45294;-90
2023/10/17 16:50:55;;;;;;;;;0.00;0.00;;;;;16.02;100.00;100653.03;6308403;22;46333;-89
2023/10/17 16:56:35;;;;;;;;;0.25;0.25;;;;;15.91;100.00;100652.75;6296683;22;45339;-92
2023/10/17 16:59:23;;;;;;;;;0.00;0.00;;;;;15.85;100.00;100653.06;6336464;22;45478;-88
2023/10/17 17:02:04;;;;;;;;;0.00;0.00;;;;;15.79;100.00;100651.63;6335463;22;45441;-88
2023/10/17 17:04:39;;;;;;;;;0.00;0.00;;;;;15.75;100.00;100649.22;6335170;22;45446;-89
2023/10/17 17:07:12;;;;;;;;;0.00;0.00;;;;;15.73;100.00;100653.66;6334853;22;45185;-88
2023/10/17 17:09:51;;;;;;;;;0.00;0.00;;;;;15.69;100.00;100655.59;6308410;22;45523;-90
2023/10/17 17:12:19;;;;;;;;;0.00;0.00;;;;;15.64;100.00;100662.88;6307553;22;46483;-89
2023/10/17 17:14:48;;;;;;;;;0.00;0.00;;;;;15.60;100.00;100667.44;6334967;22;45304;-88
2023/10/17 17:17:14;;;;;;;;;0.00;0.00;;;;;15.57;100.00;100670.22;6307954;22;45268;-86
2023/10/17 17:19:39;;;;;;;;;0.00;0.00;;;;;15.59;100.00;100673.59;6313600;22;45204;-81
2023/10/17 17:22:10;;;;;;;;;0.00;0.00;;;;;15.57;100.00;100669.38;6334422;22;69741;-87
2023/10/17 17:25:00;;;;;;;;;;;;;;;;;;;;;
2023/10/17 17:27:41;;;;;;;;;;;;;;;;;;;;;
2023/10/17 17:30:23;;;;;;;;;0.00;0.00;;;;;15.40;100.00;100673.69;6330841;22;70084;-88
2023/10/17 17:32:51;;;;;;;;;0.00;0.00;;;;;15.35;100.00;100666.97;6335280;22;46178;-87
2023/10/17 17:35:19;;;;;;;;;0.00;0.00;;;;;15.34;100.00;100675.75;6334206;22;45262;-83
2023/10/17 17:38:00;;;;;;;;;;;;;;;;;;;;;
2023/10/17 17:40:35;;;;;;;;;0.00;0.00;;;;;15.27;100.00;100675.22;6335738;22;69282;-87
2023/10/17 17:43:06;;;;;;;;;0.00;0.00;;;;;15.25;100.00;100680.53;6336934;22;45311;-92
2023/10/17 17:45:41;;;;;;;;;;;;;;;;;;;;;
2023/10/17 17:48:33;;;;;;;;;0.00;0.00;;;;;15.16;100.00;100656.56;6264653;22;69912;-96
2023/10/17 17:51:02;;;;;;;;;0.00;0.00;;;;;15.15;100.00;100660.09;6320321;22;45247;-94
2023/10/17 17:53:36;;;;;;;;;0.00;0.00;;;;;15.15;100.00;100658.31;6343642;22;45545;-96
2023/10/17 17:56:09;;;;;;;;;0.00;0.00;;;;;15.10;100.00;100647.22;6315910;22;45381;-96
2023/10/17 17:59:01;;;;;;;;;;;;;;;;;;;;;
2023/10/17 18:01:36;;;;;;;;;0.00;0.00;;;;;15.12;100.00;100650.63;6345145;22;70525;-96
2023/10/17 18:04:02;;;;;;;;;0.00;0.00;;;;;15.06;100.00;100648.28;6335912;22;45218;-88
2023/10/17 18:06:28;;;;;;;;;0.00;0.00;;;;;15.06;100.00;100641.28;6308590;22;45322;-92
2023/10/17 18:08:56;;;;;;;;;0.00;0.00;;;;;15.06;100.00;100645.66;6310748;22;45393;-87
2023/10/17 18:11:22;;;;;;;;;2.00;2.00;;;;;15.05;100.00;100631.72;6308038;22;45385;-89
2023/10/17 18:13:47;;;;;;;;;0.00;0.00;;;;;14.97;100.00;100622.50;6336064;22;46152;-89
2023/10/17 18:16:16;;;;;;;;;0.00;0.00;;;;;14.98;100.00;100616.34;6308555;22;45368;-88
2023/10/17 18:18:44;;;;;;;;;0.00;0.00;;;;;14.97;100.00;100622.50;6307532;22;45465;-86
2023/10/17 18:21:16;;;;;;;;;0.00;0.00;;;;;14.97;100.00;100617.28;6335477;22;45338;-87
2023/10/17 18:23:46;;;;;;;;;0.00;0.00;;;;;14.95;100.00;100613.88;6336120;22;46224;-86
2023/10/17 18:26:17;;;;;;;;;0.00;0.00;;;;;14.97;100.00;100617.28;6310013;22;45222;-87
2023/10/17 18:28:45;;;;;;;;;0.00;0.00;;;;;14.94;100.00;100604.34;6308247;22;45259;-88
2023/10/17 18:31:12;;;;;;;;;0.00;0.00;;;;;14.85;100.00;100595.16;6336014;22;45324;-86
2023/10/17 18:33:38;;;;;;;;;0.00;0.00;;;;;14.88;100.00;100600.25;6334968;22;46855;-84
2023/10/17 18:36:12;;;;;;;;;0.00;0.00;;;;;14.86;100.00;100604.72;6308996;22;45305;-94
2023/10/17 18:38:40;;;;;;;;;0.00;0.00;;;;;14.83;100.00;100595.22;6336701;22;45333;-89
2023/10/17 18:41:12;;;;;;;;;0.00;0.00;;;;;14.83;100.00;100597.00;6339968;22;45479;-87
2023/10/17 18:43:43;;;;;;;;;0.00;0.00;;;;;14.82;100.00;100597.91;6340094;22;46967;-89
2023/10/17 18:46:12;;;;;;;;;0.00;0.00;;;;;14.78;100.00;100591.97;6343388;22;45118;-88
2023/10/17 18:48:40;;;;;;;;;0.00;0.00;;;;;14.78;100.00;100591.13;6329258;22;45310;-86
2023/10/17 18:51:13;;;;;;;;;0.00;0.00;;;;;14.67;100.00;100579.41;6359279;22;45360;-86
2023/10/17 18:53:51;;;;;;;;;;;;;;;;;;;;;
2023/10/17 18:56:21;;;;;;;;;0.00;0.00;;;;;14.66;100.00;100566.38;6304488;22;73948;-88
2023/10/17 18:58:51;;;;;;;;;0.00;0.00;;;;;14.65;100.00;100573.41;6283631;22;45307;-87
2023/10/17 19:01:24;;;;;;;;;0.00;0.00;;;;;14.58;100.00;100563.25;6337431;22;45542;-87
2023/10/17 19:03:57;;;;;;;;;0.00;0.00;;;;;14.57;100.00;100566.78;6311023;22;47205;-87
2023/10/17 19:06:30;;;;;;;;;1.00;1.00;;;;;14.56;100.00;100565.97;6284972;22;45354;-87
2023/10/17 19:09:20;;;;;;;;;0.00;0.00;;;;;14.52;100.00;100554.78;6336994;22;45276;-87
2023/10/17 19:11:53;;;;;;;;;0.00;0.00;;;;;14.49;100.00;100551.44;6129656;23;45371;-87
2023/10/17 19:14:23;;;;;;;;;0.00;0.00;;;;;14.41;100.00;100554.44;6156092;23;46450;-87
2023/10/17 19:17:16;;;;;;;;;;;;;;;;;;;;;
2023/10/17 19:20:00;;;;;;;;;;;;;;;;;;;;;
2023/10/17 19:22:31;;;;;;;;;0.00;0.00;;;;;14.26;100.00;100556.03;6175416;23;70230;-88
2023/10/17 19:25:14;;;;;;;;;;;;;;;;;;;;;
2023/10/17 19:28:21;;;;;;;;;0.00;0.00;;;;;14.24;100.00;100567.47;6176092;23;73098;-87
2023/10/17 19:31:01;;;;;;;;;0.00;0.00;;;;;14.17;100.00;100566.91;6090200;23;45409;-87
2023/10/17 19:33:42;;;;;;;;;;;;;;;;;;;;;
2023/10/17 19:36:19;;;;;;;;;0.00;0.00;;;;;14.13;100.00;100568.84;6086412;23;76299;-87
2023/10/17 19:38:54;;;;;;;;;;;;;;;;;;;;;
2023/10/17 19:41:49;;;;;;;;;0.00;0.00;;;;;14.04;100.00;100552.69;6086628;23;70026;-87
2023/10/17 19:44:24;;;;;;;;;1.00;1.00;;;;;14.06;100.00;100554.31;6068225;23;45450;-88
2023/10/17 19:46:52;;;;;;;;;0.00;0.00;;;;;13.98;100.00;100539.88;6091838;22;46663;-87
2023/10/17 19:49:33;;;;;;;;;;;;;;;;;;;;;
2023/10/17 19:52:29;;;;;;;;;;;;;;;;;;;;;
2023/10/17 19:55:13;;;;;;;;;0.00;0.00;;;;;13.89;100.00;100533.31;6239273;22;68587;-87
2023/10/17 19:57:50;;;;;;;;;0.00;0.00;;;;;13.88;100.00;100529.84;6240264;22;45559;-87
2023/10/17 20:00:22;;;;;;;;;0.00;0.00;;;;;13.90;100.00;100541.09;6216308;22;45386;-87
2023/10/17 20:03:15;;;;;;;;;;;;;;;;;;;;;
2023/10/17 20:06:05;;;;;;;;;;;;;;;;;;;;;
2023/10/17 20:09:04;;;;;;;;;;;;;;;;;;;;;
2023/10/17 20:12:11;;;;;;;;;0.00;0.00;;;;;13.83;100.00;100533.59;6327504;22;73605;-86
2023/10/17 20:14:48;;;;;;;;;0.00;0.00;;;;;13.80;100.00;100526.75;6335652;22;45388;-86
2023/10/17 20:17:26;;;;;;;;;;;;;;;;;;;;;
2023/10/17 20:20:12;;;;;;;;;;;;;;;;;;;;;
2023/10/17 20:22:57;;;;;;;;;0.00;0.00;;;;;13.72;100.00;100505.31;6335522;22;73070;-86
2023/10/17 20:25:40;;;;;;;;;;;;;;;;;;;;;
2023/10/17 20:28:19;;;;;;;;;;;;;;;;;;;;;
2023/10/17 20:30:52;;;;;;;;;0.00;0.00;;;;;13.70;100.00;100500.13;6329648;22;74963;-85
2023/10/17 20:33:41;;;;;;;;;0.00;0.00;;;;;13.66;100.00;100493.34;6336228;22;45265;-86
2023/10/17 20:36:16;;;;;;;;;0.00;0.00;;;;;13.61;100.00;100478.78;6294453;22;45339;-87
2023/10/17 20:39:31;;;;;;;;;0.00;0.00;;;;;13.58;100.00;100482.41;6311155;22;45365;-86
2023/10/17 20:42:21;;;;;;;;;;;;;;;;;;;;;
2023/10/17 20:45:25;;;;;;;;;0.00;0.00;;;;;13.58;100.00;100479.78;6336104;22;45257;-86
2023/10/17 20:48:10;;;;;;;;;0.00;0.00;;;;;13.49;100.00;100469.75;6337497;22;45265;-87
2023/10/17 20:54:07;;;;;;;;;0.00;0.00;;;;;13.50;100.00;100479.28;6296682;22;46401;-87
2023/10/17 20:56:48;;;;;;;;;;;;;;;;;;;;;
2023/10/17 21:00:02;;;;;;;;;;;;;;;;;;;;;
2023/10/17 21:03:05;;;;;;;;;16.00;16.00;;;;;13.39;100.00;100460.59;6326102;22;45230;-87
2023/10/17 21:06:14;;;;;;;;;;;;;;;;;;;;;
2023/10/17 21:09:16;;;;;;;;;;;;;;;;;;;;;
2023/10/17 21:12:16;;;;;;;;;0.00;0.00;;;;;13.36;100.00;100459.84;6151023;23;70055;-87
2023/10/17 21:14:53;;;;;;;;;0.00;0.00;;;;;13.42;100.00;100465.72;6129734;23;45546;-87
2023/10/17 21:17:59;;;;;;;;;;;;;;;;;;;;;
2023/10/17 21:20:42;;;;;;;;;0.00;0.00;;;;;13.38;100.00;100456.31;6175118;23;74001;-87
2023/10/17 21:27:13;;;;;;;;;;;;;;;;;;;;;
2023/10/17 21:29:51;;;;;;;;;0.00;0.00;;;;;13.33;100.00;100443.44;6150702;23;45981;-87
2023/10/17 21:32:45;;;;;;;;;;;;;;;;;;;;;
2023/10/17 21:36:02;;;;;;;;;0.00;0.00;;;;;13.31;100.00;100434.81;6060854;23;45332;-87
2023/10/17 21:39:00;;;;;;;;;;;;;;;;;;;;;
2023/10/17 21:42:35;;;;;;;;;0.00;0.00;;;;;13.36;100.00;100440.69;6015517;23;76536;-87
2023/10/17 21:48:26;;;;;;;;;0.00;0.00;;;;;13.27;100.00;100425.38;6113397;23;45318;-87
2023/10/17 21:51:19;;;;;;;;;;;;;;;;;;;;;
2023/10/17 21:54:36;;;;;;;;;0.00;0.00;;;;;13.22;100.00;100428.19;6115196;23;76342;-87
2023/10/17 22:00:19;;;;;;;;;0.00;0.00;;;;;13.17;100.00;100427.56;6051611;23;45467;-86
2023/10/17 22:06:41;;;;;;;;;;;;;;;;;;;;;
2023/10/17 22:09:12;;;;;;;;;0.00;0.00;;;;;13.04;100.00;100415.94;6014694;23;72981;-87
2023/10/17 22:15:27;;;;;;;;;;;;;;;;;;;;;
2023/10/17 22:18:19;;;;;;;;;;;;;;;;;;;;;
2023/10/17 22:21:04;;;;;;;;;;;;;;;;;;;;;
2023/10/17 22:24:07;;;;;;;;;;;;;;;;;;;;;
2023/10/17 22:30:25;;;;;;;;;;;;;;;;;;;;;
2023/10/17 22:32:56;;;;;;;;;0.00;0.00;;;;;12.77;100.00;100364.84;6108585;23;74332;-87
2023/10/17 22:41:57;;;;;;;;;2.50;2.50;;;;;12.78;100.00;100371.78;6193924;22;46651;-87
2023/10/17 22:45:09;;;;;;;;;;;;;;;;;;;;;
2023/10/17 22:47:55;;;;;;;;;;;;;;;;;;;;;
2023/10/17 22:50:48;;;;;;;;;;;;;;;;;;;;;
2023/10/17 22:53:18;;;;;;;;;0.00;0.00;;;;;12.64;100.00;100336.75;6336187;22;75742;-86
2023/10/17 22:56:10;;;;;;;;;;;;;;;;;;;;;
2023/10/17 23:02:14;;;;;;;;;0.00;0.00;;;;;12.57;100.00;100321.38;6293180;22;45269;-87
2023/10/17 23:05:05;;;;;;;;;0.00;0.00;;;;;12.53;100.00;100311.09;6343284;22;47108;-86
2023/10/17 23:08:00;;;;;;;;;;;;;;;;;;;;;
2023/10/17 23:11:07;;;;;;;;;;;;;;;;;;;;;
2023/10/17 23:17:11;;;;;;;;;;;;;;;;;;;;;
2023/10/17 23:19:57;;;;;;;;;;;;;;;;;;;;;
2023/10/17 23:22:30;;;;;;;;;0.00;0.00;;;;;12.43;100.00;100312.44;6297885;22;70093;-86
2023/10/17 23:25:12;;;;;;;;;0.00;0.00;;;;;12.42;100.00;100308.97;6303630;22;45377;-87
2023/10/17 23:28:36;;;;;;;;;0.00;0.00;;;;;12.38;100.00;100302.19;6277989;22;47144;-87
2023/10/17 23:31:23;;;;;;;;;;;;;;;;;;;;;
2023/10/17 23:33:58;;;;;;;;;0.00;0.00;;;;;12.33;100.00;100284.13;6290127;22;67774;-86
2023/10/17 23:40:37;;;;;;;;;;;;;;;;;;;;;
2023/10/17 23:49:50;;;;;;;;;0.00;0.00;;;;;12.31;100.00;100270.28;6233360;22;45925;-87
2023/10/17 23:55:44;;;;;;;;;0.00;0.00;;;;;12.20;100.00;100242.06;6238364;22;45318;-87
2023/10/17 23:58:47;;;;;;;;;0.00;0.00;;;;;12.19;100.00;100245.56;6271332;22;45320;-87
